Time;durP1;ratioP1;P1;durP2;ratioP2;P2;SDS_P1;SDS_P2;PMS_P1;PMS_P2;Temp;Humidity;BMP_temperature;BMP_pressure;BME280_temperature;BME280_humidity;BME280_pressure;Samples;Min_cycle;Max_cycle;Signal;HPM_P1;HPM_P2
2022/08/12 00:44:36;;;;;;;;;;;14.80;77.10;;;;;;6125843;23;19905;-65
2022/08/12 00:47:03;;;;;;;;;;;14.80;77.30;;;;;;6125418;23;19909;-65
2022/08/12 00:49:29;;;;;;;;;;;14.80;77.20;;;;;;6126425;23;19980;-65
2022/08/12 00:52:05;;;;;;;;;;;14.80;77.50;;;;;;6126107;23;19923;-65
2022/08/12 00:54:36;;;;;;;;;;;14.80;76.70;;;;;;6125387;23;19912;-65
2022/08/12 00:57:07;;;;;;;;;;;14.90;77.60;;;;;;6126002;23;20265;-64
2022/08/12 00:59:34;;;;;;;;;;;14.90;77.70;;;;;;6125879;23;19905;-65
2022/08/12 01:02:03;;;;;;;;;;;14.90;76.80;;;;;;6125779;23;19963;-65
2022/08/12 01:12:44;;;;;;;;;;;14.80;77.90;;;;;;6125477;23;19912;-65
2022/08/12 01:15:11;;;;;;;;;;;14.80;77.90;;;;;;6125571;23;19912;-65
2022/08/12 01:17:39;;;;;;;;;;;14.80;77.90;;;;;;6125931;23;19994;-65
2022/08/12 01:20:06;;;;;;;;;;;14.80;78.00;;;;;;6100032;23;19933;-66
2022/08/12 01:22:49;;;;;;;;;;;14.80;78.60;;;;;;6126015;23;19905;-64
2022/08/12 01:25:17;;;;;;;;;;;14.70;78.30;;;;;;6125613;23;20328;-65
2022/08/12 01:27:43;;;;;;;;;;;14.70;78.30;;;;;;6099088;23;19967;-65
2022/08/12 01:30:10;;;;;;;;;;;14.70;78.50;;;;;;6099680;23;19996;-65
2022/08/12 01:32:38;;;;;;;;;;;14.70;79.10;;;;;;6125485;23;19905;-65
2022/08/12 01:35:12;;;;;;;;;;;14.70;79.60;;;;;;6125745;23;19916;-65
2022/08/12 01:37:57;;;;;;;;;;;14.70;79.70;;;;;;6125613;23;19990;-65
2022/08/12 01:40:26;;;;;;;;;;;14.70;80.20;;;;;;6125709;23;20272;-65
2022/08/12 01:42:52;;;;;;;;;;;14.70;80.40;;;;;;6125935;23;19911;-65
2022/08/12 01:45:23;;;;;;;;;;;14.70;80.30;;;;;;6099123;23;19909;-65
2022/08/12 01:48:01;;;;;;;;;;;14.70;79.80;;;;;;6100539;23;19917;-65
2022/08/12 01:50:37;;;;;;;;;;;14.70;80.50;;;;;;6099445;23;19996;-65
2022/08/12 01:53:05;;;;;;;;;;;14.80;81.30;;;;;;6125320;23;19905;-65
2022/08/12 01:55:33;;;;;;;;;;;14.80;80.40;;;;;;6125019;23;20201;-65
2022/08/12 01:58:10;;;;;;;;;;;14.80;79.90;;;;;;6125003;23;20336;-65
2022/08/12 02:00:50;;;;;;;;;;;14.90;79.90;;;;;;6124392;23;19905;-65
2022/08/12 02:03:17;;;;;;;;;;;14.90;79.20;;;;;;6125571;23;19996;-65
2022/08/12 02:11:23;;;;;;;;;;;15.20;78.80;;;;;;6124815;23;19912;-65
2022/08/12 02:13:55;;;;;;;;;;;15.20;78.30;;;;;;6125488;23;19917;-65
2022/08/12 02:16:40;;;;;;;;;;;15.20;78.00;;;;;;6124959;23;20233;-65
2022/08/12 02:19:19;;;;;;;;;;;15.20;77.60;;;;;;6099062;23;20280;-65
2022/08/12 02:21:47;;;;;;;;;;;15.20;77.90;;;;;;6124094;23;20256;-65
2022/08/12 02:24:15;;;;;;;;;;;15.20;77.60;;;;;;6099595;23;19905;-65
2022/08/12 02:26:42;;;;;;;;;;;15.30;77.20;;;;;;6125297;23;19905;-65
2022/08/12 02:29:09;;;;;;;;;;;15.30;77.00;;;;;;6124801;23;19913;-65
2022/08/12 02:31:35;;;;;;;;;;;15.30;77.50;;;;;;6098916;23;19977;-65
2022/08/12 02:34:02;;;;;;;;;;;15.30;77.00;;;;;;6099489;23;20316;-65
2022/08/12 02:36:31;;;;;;;;;;;15.30;77.10;;;;;;6099494;23;19901;-65
2022/08/12 02:38:58;;;;;;;;;;;15.30;77.10;;;;;;6099970;23;19951;-64
2022/08/12 02:41:25;;;;;;;;;;;15.30;77.40;;;;;;6125010;23;20035;-65
2022/08/12 02:43:52;;;;;;;;;;;15.20;77.60;;;;;;6099351;23;19909;-65
2022/08/12 02:46:21;;;;;;;;;;;15.30;77.80;;;;;;6099970;23;19983;-65
2022/08/12 02:48:47;;;;;;;;;;;15.30;78.00;;;;;;6099002;23;19917;-65
2022/08/12 02:51:16;;;;;;;;;;;15.30;78.10;;;;;;6125214;23;19976;-66
2022/08/12 02:53:43;;;;;;;;;;;15.30;78.40;;;;;;6124634;23;19952;-65
2022/08/12 02:56:11;;;;;;;;;;;15.30;79.20;;;;;;6099341;23;19932;-66
2022/08/12 02:58:38;;;;;;;;;;;15.30;79.10;;;;;;6124920;23;20284;-66
2022/08/12 03:01:07;;;;;;;;;;;15.40;78.90;;;;;;6124372;23;19905;-65
2022/08/12 03:03:34;;;;;;;;;;;15.50;78.90;;;;;;6099395;23;19905;-66
2022/08/12 03:06:08;;;;;;;;;;;15.50;79.20;;;;;;6124525;23;19944;-65
2022/08/12 03:08:39;;;;;;;;;;;15.50;78.90;;;;;;6125366;23;19925;-65
2022/08/12 03:11:28;;;;;;;;;;;15.60;78.50;;;;;;6124665;23;19908;-66
2022/08/12 03:13:56;;;;;;;;;;;15.60;78.70;;;;;;6109243;23;20387;-66
2022/08/12 03:16:23;;;;;;;;;;;15.70;78.60;;;;;;6098139;23;19980;-65
2022/08/12 03:18:50;;;;;;;;;;;15.70;78.60;;;;;;6075951;23;19936;-65
2022/08/12 03:21:17;;;;;;;;;;;15.70;78.50;;;;;;6126517;23;20222;-66
2022/08/12 03:23:44;;;;;;;;;;;15.70;78.90;;;;;;6126700;23;20287;-65
2022/08/12 03:26:11;;;;;;;;;;;15.70;79.10;;;;;;6100746;23;20215;-68
2022/08/12 03:28:50;;;;;;;;;;;15.80;79.10;;;;;;6099785;23;20329;-66
2022/08/12 03:31:17;;;;;;;;;;;15.80;79.20;;;;;;6125293;23;19905;-65
2022/08/12 03:33:44;;;;;;;;;;;15.70;79.40;;;;;;6125677;23;20238;-65
2022/08/12 03:36:10;;;;;;;;;;;15.70;79.70;;;;;;6125791;23;19913;-65
2022/08/12 03:38:39;;;;;;;;;;;15.70;79.40;;;;;;6125983;23;19967;-65
2022/08/12 04:00:40;;;;;;;;;;;15.40;80.10;;;;;;6125302;23;20297;-65
2022/08/12 04:03:50;;;;;;;;;;;15.50;80.10;;;;;;6125525;23;19997;-65
2022/08/12 04:05:54;;;;;;;;;;;15.50;80.10;;;;;;6103576;23;20260;-65
2022/08/12 04:08:22;;;;;;;;;;;15.50;80.20;;;;;;6125623;23;19905;-66
2022/08/12 04:13:33;;;;;;;;;;;15.50;80.50;;;;;;6121978;23;19916;-63
2022/08/12 04:16:01;;;;;;;;;;;15.50;80.40;;;;;;6120853;23;19913;-63
2022/08/12 04:18:28;;;;;;;;;;;15.40;80.60;;;;;;6122294;23;20292;-63
2022/08/12 04:20:54;;;;;;;;;;;15.50;80.70;;;;;;6122840;23;19909;-63
2022/08/12 04:23:22;;;;;;;;;;;15.40;80.30;;;;;;6121768;23;19909;-63
2022/08/12 04:25:49;;;;;;;;;;;15.40;80.20;;;;;;6096757;23;19980;-63
2022/08/12 04:28:16;;;;;;;;;;;15.50;79.70;;;;;;6122069;23;20231;-63
2022/08/12 04:30:43;;;;;;;;;;;15.50;79.90;;;;;;6095936;23;19913;-64
2022/08/12 04:33:11;;;;;;;;;;;15.50;80.10;;;;;;6121862;23;19924;-64
2022/08/12 04:35:38;;;;;;;;;;;15.50;79.60;;;;;;6121696;23;20209;-63
2022/08/12 04:38:04;;;;;;;;;;;15.50;79.80;;;;;;6120538;23;20222;-62
2022/08/12 04:40:31;;;;;;;;;;;15.50;80.20;;;;;;6096073;23;20016;-63
2022/08/12 04:42:59;;;;;;;;;;;15.50;80.30;;;;;;6121734;23;19916;-64
2022/08/12 04:45:26;;;;;;;;;;;15.40;80.10;;;;;;6122311;23;19909;-64
2022/08/12 04:47:52;;;;;;;;;;;15.40;79.90;;;;;;6122467;23;19905;-63
2022/08/12 04:50:19;;;;;;;;;;;15.40;80.00;;;;;;6121908;23;20352;-63
2022/08/12 04:52:46;;;;;;;;;;;15.40;79.90;;;;;;6122627;23;19916;-63
2022/08/12 04:55:12;;;;;;;;;;;15.40;80.20;;;;;;6121998;23;19985;-64
2022/08/12 04:57:39;;;;;;;;;;;15.40;80.40;;;;;;6122587;23;20047;-65
2022/08/12 05:00:12;;;;;;;;;;;15.40;80.20;;;;;;6120837;23;20233;-64
2022/08/12 05:02:39;;;;;;;;;;;15.40;79.90;;;;;;6122159;23;19932;-63
2022/08/12 05:05:07;;;;;;;;;;;15.40;79.90;;;;;;6121591;23;20333;-63
2022/08/12 05:07:34;;;;;;;;;;;15.40;80.20;;;;;;6072828;23;20020;-63
2022/08/12 05:10:01;;;;;;;;;;;15.40;80.20;;;;;;6093963;23;19924;-62
2022/08/12 05:12:29;;;;;;;;;;;15.50;79.80;;;;;;6121987;23;20028;-62
2022/08/12 05:14:57;;;;;;;;;;;15.40;79.90;;;;;;6072212;23;19932;-62
2022/08/12 05:17:24;;;;;;;;;;;15.40;79.80;;;;;;6122004;23;19905;-62
2022/08/12 05:19:51;;;;;;;;;;;15.40;79.60;;;;;;6121553;23;19912;-65
2022/08/12 05:22:18;;;;;;;;;;;15.40;79.50;;;;;;6121949;23;20328;-64
2022/08/12 05:24:46;;;;;;;;;;;15.40;79.80;;;;;;6119528;23;19905;-64
2022/08/12 05:27:13;;;;;;;;;;;15.40;79.30;;;;;;6120394;23;19969;-64
2022/08/12 05:29:41;;;;;;;;;;;15.40;79.30;;;;;;6121293;23;19962;-64
2022/08/12 05:32:08;;;;;;;;;;;15.40;79.50;;;;;;6120907;23;19909;-64
2022/08/12 05:34:34;;;;;;;;;;;15.40;79.30;;;;;;6121292;23;19916;-64
2022/08/12 05:37:01;;;;;;;;;;;15.40;79.70;;;;;;6121652;23;19915;-63
2022/08/12 05:39:27;;;;;;;;;;;15.40;79.40;;;;;;6121867;23;20280;-64
2022/08/12 05:41:54;;;;;;;;;;;15.40;79.80;;;;;;6121948;23;20066;-64
2022/08/12 05:44:21;;;;;;;;;;;15.40;79.70;;;;;;6121871;23;19909;-63
2022/08/12 05:46:47;;;;;;;;;;;15.40;80.00;;;;;;6122089;23;19979;-64
2022/08/12 05:49:15;;;;;;;;;;;15.40;80.30;;;;;;6121032;23;19963;-62
2022/08/12 05:51:42;;;;;;;;;;;15.40;80.20;;;;;;6121292;23;20364;-64
2022/08/12 05:54:09;;;;;;;;;;;15.40;80.40;;;;;;6120879;23;19909;-65
2022/08/12 05:56:36;;;;;;;;;;;15.30;80.50;;;;;;6096385;23;19909;-65
2022/08/12 05:59:06;;;;;;;;;;;15.30;80.20;;;;;;6121109;23;19916;-64
2022/08/12 06:01:32;;;;;;;;;;;15.30;80.50;;;;;;6120705;23;20135;-64
2022/08/12 06:03:59;;;;;;;;;;;15.30;80.40;;;;;;6120702;23;20119;-64
2022/08/12 06:06:26;;;;;;;;;;;15.30;80.60;;;;;;6122473;23;19928;-64
2022/08/12 06:08:53;;;;;;;;;;;15.30;80.60;;;;;;6121555;23;19948;-64
2022/08/12 06:11:20;;;;;;;;;;;15.20;81.00;;;;;;6121385;23;19960;-64
2022/08/12 06:13:47;;;;;;;;;;;15.30;81.20;;;;;;6120740;23;19909;-64
2022/08/12 06:16:14;;;;;;;;;;;15.20;81.10;;;;;;6121537;23;19909;-64
2022/08/12 06:18:41;;;;;;;;;;;15.20;81.50;;;;;;6121197;23;19908;-65
2022/08/12 06:21:08;;;;;;;;;;;15.20;81.60;;;;;;6121949;23;20346;-63
2022/08/12 06:23:35;;;;;;;;;;;15.20;81.30;;;;;;6118688;23;19909;-63
2022/08/12 06:26:02;;;;;;;;;;;15.20;81.40;;;;;;6096060;23;20019;-63
2022/08/12 06:28:29;;;;;;;;;;;15.20;81.60;;;;;;6118853;23;19941;-63
2022/08/12 06:30:56;;;;;;;;;;;15.20;81.70;;;;;;6121033;23;19933;-62
2022/08/12 06:33:23;;;;;;;;;;;15.20;81.90;;;;;;6095471;23;20344;-63
2022/08/12 06:35:50;;;;;;;;;;;15.20;82.40;;;;;;6120310;23;19920;-63
2022/08/12 06:38:17;;;;;;;;;;;15.20;82.70;;;;;;6121016;23;19912;-63
2022/08/12 06:43:29;;;;;;;;;;;15.10;82.70;;;;;;6119602;23;20335;-62
2022/08/12 06:45:56;;;;;;;;;;;15.10;82.90;;;;;;6121025;23;20256;-61
2022/08/12 06:48:30;;;;;;;;;;;15.10;82.50;;;;;;6095154;23;19917;-61
2022/08/12 06:50:56;;;;;;;;;;;15.10;82.70;;;;;;6096478;23;20193;-62
2022/08/12 06:53:23;;;;;;;;;;;15.10;82.70;;;;;;6095421;23;19960;-62
2022/08/12 06:55:52;;;;;;;;;;;15.10;82.60;;;;;;6122665;23;19913;-60
2022/08/12 06:58:19;;;;;;;;;;;15.10;82.40;;;;;;6123132;23;19909;-60
2022/08/12 07:00:46;;;;;;;;;;;15.10;82.50;;;;;;6122771;23;19912;-61
2022/08/12 07:03:27;;;;;;;;;;;15.10;82.50;;;;;;6123016;23;19908;-61
2022/08/12 07:05:54;;;;;;;;;;;15.00;82.40;;;;;;6123082;23;19929;-61
2022/08/12 07:08:27;;;;;;;;;;;15.10;82.30;;;;;;6122796;23;20007;-61
2022/08/12 07:11:00;;;;;;;;;;;15.10;82.30;;;;;;6122174;23;19913;-61
2022/08/12 07:13:34;;;;;;;;;;;15.00;82.40;;;;;;6122218;23;19941;-61
2022/08/12 07:16:01;;;;;;;;;;;15.00;82.10;;;;;;6122952;23;19944;-61
2022/08/12 07:18:31;;;;;;;;;;;15.00;82.30;;;;;;6122853;23;19915;-61
2022/08/12 07:20:59;;;;;;;;;;;15.00;82.20;;;;;;6122657;23;19915;-62
2022/08/12 07:23:26;;;;;;;;;;;15.00;82.30;;;;;;6120560;23;19983;-61
2022/08/12 07:25:53;;;;;;;;;;;15.00;82.30;;;;;;6096961;23;19908;-61
2022/08/12 07:28:22;;;;;;;;;;;15.00;82.50;;;;;;6122825;23;20368;-63
2022/08/12 07:30:49;;;;;;;;;;;14.90;82.60;;;;;;6097061;23;19909;-61
2022/08/12 07:33:16;;;;;;;;;;;14.90;82.70;;;;;;6122909;23;19936;-61
2022/08/12 07:35:46;;;;;;;;;;;14.90;82.80;;;;;;6122272;23;20000;-64
2022/08/12 07:38:26;;;;;;;;;;;14.90;82.90;;;;;;6122144;23;19909;-64
2022/08/12 07:41:04;;;;;;;;;;;14.90;83.00;;;;;;6095005;23;19925;-64
2022/08/12 07:43:31;;;;;;;;;;;14.90;83.10;;;;;;6122817;23;19978;-62
2022/08/12 07:45:59;;;;;;;;;;;14.90;83.00;;;;;;6122543;23;20372;-64
2022/08/12 07:48:25;;;;;;;;;;;14.90;83.10;;;;;;6122354;23;19916;-63
2022/08/12 07:50:52;;;;;;;;;;;14.80;83.00;;;;;;6122663;23;19916;-63
2022/08/12 07:53:19;;;;;;;;;;;14.80;83.00;;;;;;6122626;23;19909;-62
2022/08/12 07:55:46;;;;;;;;;;;14.80;83.20;;;;;;6122476;23;20253;-62
2022/08/12 07:58:13;;;;;;;;;;;14.80;83.10;;;;;;6122844;23;19909;-64
2022/08/12 08:00:39;;;;;;;;;;;14.80;83.00;;;;;;6122646;23;20396;-64
2022/08/12 08:03:07;;;;;;;;;;;14.80;83.10;;;;;;6122526;23;20333;-64
2022/08/12 08:05:38;;;;;;;;;;;14.80;83.20;;;;;;6120453;23;19931;-64
2022/08/12 08:08:14;;;;;;;;;;;14.80;83.10;;;;;;6123194;23;19927;-64
2022/08/12 08:10:41;;;;;;;;;;;14.70;83.10;;;;;;6123155;23;19913;-61
2022/08/12 08:13:10;;;;;;;;;;;14.70;83.40;;;;;;6122662;23;19912;-64
2022/08/12 08:15:38;;;;;;;;;;;14.70;83.40;;;;;;6122233;23;19916;-64
2022/08/12 08:18:05;;;;;;;;;;;14.70;83.30;;;;;;6122004;23;20040;-64
2022/08/12 08:20:33;;;;;;;;;;;14.70;83.20;;;;;;6122751;23;19912;-64
2022/08/12 08:23:04;;;;;;;;;;;14.70;83.20;;;;;;6123337;23;19916;-64
2022/08/12 08:25:31;;;;;;;;;;;14.70;83.20;;;;;;6094600;23;20605;-63
2022/08/12 08:27:58;;;;;;;;;;;14.70;83.40;;;;;;6122664;23;19912;-62
2022/08/12 08:30:26;;;;;;;;;;;14.70;83.60;;;;;;6122246;23;19917;-63
2022/08/12 08:32:52;;;;;;;;;;;14.70;83.60;;;;;;6122149;23;19976;-63
2022/08/12 08:35:21;;;;;;;;;;;14.70;83.40;;;;;;6122173;23;20235;-63
2022/08/12 08:37:48;;;;;;;;;;;14.70;83.50;;;;;;6122612;23;19924;-62
2022/08/12 08:42:59;;;;;;;;;;;14.70;83.50;;;;;;6122432;23;19932;-62
2022/08/12 08:45:27;;;;;;;;;;;14.70;83.90;;;;;;6122818;23;19909;-63
2022/08/12 08:47:54;;;;;;;;;;;14.70;84.10;;;;;;6122271;23;20305;-62
2022/08/12 08:50:21;;;;;;;;;;;14.70;84.10;;;;;;6122728;23;19924;-62
2022/08/12 08:52:50;;;;;;;;;;;14.70;84.10;;;;;;6122862;23;19908;-62
2022/08/12 08:55:17;;;;;;;;;;;14.70;84.10;;;;;;6122250;23;19956;-62
2022/08/12 08:57:44;;;;;;;;;;;14.60;84.20;;;;;;6122797;23;19909;-63
2022/08/12 09:00:15;;;;;;;;;;;14.60;84.30;;;;;;6122204;23;19913;-63
2022/08/12 09:02:42;;;;;;;;;;;14.60;84.50;;;;;;6096719;23;20321;-62
2022/08/12 09:05:10;;;;;;;;;;;14.60;84.60;;;;;;6122464;23;19920;-62
2022/08/12 09:07:46;;;;;;;;;;;14.60;84.50;;;;;;6122355;23;19912;-62
2022/08/12 09:10:15;;;;;;;;;;;14.50;84.50;;;;;;6096775;23;20343;-62
2022/08/12 09:15:28;;;;;;;;;;;14.50;84.50;;;;;;6122491;23;19952;-62
2022/08/12 09:17:55;;;;;;;;;;;14.50;84.70;;;;;;6122055;23;19905;-62
2022/08/12 09:20:23;;;;;;;;;;;14.50;84.90;;;;;;6122304;23;19936;-63
2022/08/12 09:22:49;;;;;;;;;;;14.50;84.80;;;;;;6095816;23;19908;-62
2022/08/12 09:25:17;;;;;;;;;;;14.50;84.80;;;;;;6119334;23;19915;-63
2022/08/12 09:27:44;;;;;;;;;;;14.50;84.70;;;;;;6095926;23;20644;-63
2022/08/12 09:30:16;;;;;;;;;;;14.50;84.80;;;;;;6121290;23;20211;-62
2022/08/12 09:32:45;;;;;;;;;;;14.50;85.00;;;;;;6122181;23;19967;-62
2022/08/12 09:35:12;;;;;;;;;;;14.50;84.70;;;;;;6120200;23;20298;-62
2022/08/12 09:37:38;;;;;;;;;;;14.50;84.80;;;;;;6120781;23;19909;-62
2022/08/12 09:40:05;;;;;;;;;;;14.50;84.80;;;;;;6121021;23;19909;-62
2022/08/12 09:45:22;;;;;;;;;;;14.50;85.00;;;;;;6120128;23;19964;-61
2022/08/12 09:47:49;;;;;;;;;;;14.50;85.00;;;;;;6121551;23;19963;-61
2022/08/12 09:50:17;;;;;;;;;;;14.50;85.10;;;;;;6121635;23;19925;-61
2022/08/12 09:52:51;;;;;;;;;;;14.40;85.10;;;;;;6121054;23;20020;-62
2022/08/12 09:55:18;;;;;;;;;;;14.50;85.30;;;;;;6121634;23;19909;-61
2022/08/12 09:57:45;;;;;;;;;;;14.50;85.30;;;;;;6121169;23;20326;-65
2022/08/12 10:00:14;;;;;;;;;;;14.40;85.40;;;;;;6121531;23;20051;-63
2022/08/12 12:19:09;;;;;;;;;;;14.10;87.90;;;;;;6110796;23;19932;-60
2022/08/12 12:21:36;;;;;;;;;;;14.10;88.10;;;;;;6121022;23;19935;-61
2022/08/12 12:24:03;;;;;;;;;;;14.10;87.90;;;;;;6119601;23;19928;-61
2022/08/12 12:26:30;;;;;;;;;;;14.20;88.00;;;;;;6122811;23;19920;-61
2022/08/12 12:28:56;;;;;;;;;;;14.20;88.00;;;;;;6151882;23;20324;-61
2022/08/12 12:31:23;;;;;;;;;;;14.20;88.10;;;;;;6151330;23;19990;-60
2022/08/12 12:33:50;;;;;;;;;;;14.20;88.10;;;;;;6150770;23;19940;-60
2022/08/12 12:36:17;;;;;;;;;;;14.20;88.10;;;;;;6150895;23;19909;-60
2022/08/12 12:38:43;;;;;;;;;;;14.20;88.00;;;;;;6151220;23;20190;-61
2022/08/12 12:41:10;;;;;;;;;;;14.10;88.00;;;;;;6151884;23;19956;-61
2022/08/12 12:43:36;;;;;;;;;;;14.10;88.20;;;;;;6152148;23;19909;-61
2022/08/12 12:46:03;;;;;;;;;;;14.10;88.20;;;;;;6152289;23;19909;-61
2022/08/12 12:48:30;;;;;;;;;;;14.10;88.20;;;;;;6152341;23;19908;-61
2022/08/12 12:51:15;;;;;;;;;;;14.10;88.20;;;;;;6155661;23;20261;-61
2022/08/12 12:53:48;;;;;;;;;;;14.10;88.30;;;;;;6154508;23;19932;-60
2022/08/12 12:56:16;;;;;;;;;;;14.00;88.30;;;;;;6126601;23;19911;-62
2022/08/12 12:58:43;;;;;;;;;;;14.10;88.40;;;;;;6153305;23;19930;-61
2022/08/12 13:53:08;;;;;;;;;;;14.10;88.70;;;;;;6153459;23;19921;-76
2022/08/12 13:55:38;;;;;;;;;;;14.10;88.80;;;;;;6154523;23;19915;-76
2022/08/12 13:58:04;;;;;;;;;;;14.00;88.70;;;;;;6128451;23;19905;-76
2022/08/12 14:00:32;;;;;;;;;;;14.00;88.60;;;;;;6154563;23;19943;-76
2022/08/12 14:02:59;;;;;;;;;;;14.10;88.70;;;;;;6152792;23;19905;-76
2022/08/12 14:05:26;;;;;;;;;;;14.00;88.80;;;;;;6128238;23;19905;-76
2022/08/12 14:07:59;;;;;;;;;;;14.00;88.80;;;;;;6153465;23;19978;-76
2022/08/12 14:10:37;;;;;;;;;;;14.00;88.80;;;;;;6153099;23;19920;-76
2022/08/12 14:13:15;;;;;;;;;;;14.00;88.80;;;;;;6153221;23;19912;-76
2022/08/12 14:15:45;;;;;;;;;;;14.00;88.80;;;;;;6127929;23;19951;-76
2022/08/12 14:18:13;;;;;;;;;;;14.00;88.80;;;;;;6154646;23;19905;-76
2022/08/12 14:20:40;;;;;;;;;;;14.00;88.90;;;;;;6128158;23;19905;-76
2022/08/12 14:23:07;;;;;;;;;;;14.00;88.90;;;;;;6127989;23;19913;-76
2022/08/12 14:25:33;;;;;;;;;;;14.00;89.00;;;;;;6154089;23;20244;-76
2022/08/12 14:28:05;;;;;;;;;;;14.00;89.00;;;;;;6154089;23;19963;-76
2022/08/12 14:30:32;;;;;;;;;;;14.00;89.00;;;;;;6153925;23;19916;-76
2022/08/12 14:33:01;;;;;;;;;;;14.00;89.00;;;;;;6128204;23;19905;-76
2022/08/12 14:35:27;;;;;;;;;;;14.00;89.20;;;;;;6153165;23;20265;-76
2022/08/12 14:37:54;;;;;;;;;;;13.90;89.30;;;;;;6153470;23;19912;-76
2022/08/12 14:40:21;;;;;;;;;;;13.90;89.40;;;;;;6127210;23;19912;-76
2022/08/12 14:42:47;;;;;;;;;;;13.90;89.30;;;;;;6154154;23;19905;-76
2022/08/12 14:45:14;;;;;;;;;;;13.90;89.30;;;;;;6153935;23;20320;-76
2022/08/12 14:47:53;;;;;;;;;;;13.90;89.40;;;;;;6153455;23;19914;-76
2022/08/12 14:50:20;;;;;;;;;;;13.90;89.40;;;;;;6127395;23;20000;-76
2022/08/12 14:52:48;;;;;;;;;;;13.90;89.40;;;;;;6153200;23;20309;-76
2022/08/12 14:55:15;;;;;;;;;;;13.90;89.40;;;;;;6153217;23;19905;-76
2022/08/12 14:57:52;;;;;;;;;;;13.90;89.30;;;;;;6153744;23;19905;-76
2022/08/12 15:03:04;;;;;;;;;;;13.90;89.40;;;;;;6154087;23;19912;-76
2022/08/12 15:05:37;;;;;;;;;;;13.90;89.40;;;;;;6154152;23;19908;-76
2022/08/12 15:08:17;;;;;;;;;;;13.90;89.40;;;;;;6154122;23;19987;-76
2022/08/12 15:10:47;;;;;;;;;;;13.90;89.30;;;;;;6153597;23;19924;-76
2022/08/12 15:13:17;;;;;;;;;;;13.90;89.50;;;;;;6128060;23;19908;-76
2022/08/12 15:15:44;;;;;;;;;;;13.80;89.30;;;;;;6130470;23;19912;-76
2022/08/12 15:18:11;;;;;;;;;;;13.90;89.60;;;;;;6130066;23;19909;-77
2022/08/12 15:20:38;;;;;;;;;;;13.90;89.50;;;;;;6104757;23;19916;-76
2022/08/12 15:57:22;;;;;;;;;;;13.70;92.40;;;;;;6181003;23;20418;-79
2022/08/12 15:59:48;;;;;;;;;;;13.60;92.80;;;;;;6159206;23;20287;-79
2022/08/12 16:02:17;;;;;;;;;;;13.60;93.20;;;;;;6158087;23;19912;-79
2022/08/12 16:04:44;;;;;;;;;;;13.60;93.40;;;;;;6159247;23;19911;-78
2022/08/12 16:07:11;;;;;;;;;;;13.60;93.60;;;;;;6159051;23;19932;-77
2022/08/12 16:09:37;;;;;;;;;;;13.50;93.70;;;;;;6184602;23;19996;-77
2022/08/12 16:12:04;;;;;;;;;;;13.50;93.90;;;;;;6184560;23;19908;-76
2022/08/12 16:14:32;;;;;;;;;;;13.50;94.00;;;;;;6184512;23;19955;-76
2022/08/12 16:16:59;;;;;;;;;;;13.50;94.10;;;;;;6158940;23;19904;-77
2022/08/12 16:19:25;;;;;;;;;;;13.50;94.20;;;;;;6185319;23;19908;-76
2022/08/12 16:21:52;;;;;;;;;;;13.50;94.30;;;;;;6184832;23;19911;-76
2022/08/12 16:24:19;;;;;;;;;;;13.50;94.40;;;;;;6184709;23;20259;-75
2022/08/12 16:26:45;;;;;;;;;;;13.50;94.40;;;;;;6157143;23;19908;-76
2022/08/12 16:29:12;;;;;;;;;;;13.40;94.40;;;;;;6184154;23;19995;-76
2022/08/12 16:31:39;;;;;;;;;;;13.40;94.50;;;;;;6185506;23;20387;-76
2022/08/12 16:34:07;;;;;;;;;;;13.40;94.50;;;;;;6185286;23;19911;-75
2022/08/12 16:36:33;;;;;;;;;;;13.40;94.60;;;;;;6185351;23;20312;-76
2022/08/12 16:39:02;;;;;;;;;;;13.40;94.70;;;;;;6158505;23;20457;-75
2022/08/12 16:41:29;;;;;;;;;;;13.40;94.70;;;;;;6184163;23;19912;-74
2022/08/12 16:43:55;;;;;;;;;;;13.30;94.70;;;;;;6184271;23;19905;-73
2022/08/12 16:46:24;;;;;;;;;;;13.30;94.80;;;;;;6185077;23;19918;-72
2022/08/12 16:48:53;;;;;;;;;;;13.40;94.90;;;;;;6185055;23;20299;-72
2022/08/12 16:51:20;;;;;;;;;;;13.30;94.90;;;;;;6184550;23;19912;-72
2022/08/12 16:53:47;;;;;;;;;;;13.40;95.10;;;;;;6184246;23;19908;-72
2022/08/12 16:56:14;;;;;;;;;;;13.30;95.10;;;;;;6184218;23;20225;-73
